createdAt,value
2023-04-04T00:02:23.581Z,2.00
2023-04-04T00:04:51.710Z,1.90
2023-04-04T00:07:19.910Z,1.90
2023-04-04T00:09:49.344Z,1.90
2023-04-04T00:12:17.778Z,1.80
2023-04-04T00:14:45.915Z,1.80
2023-04-04T00:17:13.999Z,1.80
2023-04-04T00:19:42.373Z,1.80
2023-04-04T00:22:10.540Z,1.70
2023-04-04T00:24:38.631Z,1.70
2023-04-04T00:27:08.122Z,1.70
2023-04-04T00:29:37.345Z,1.70
2023-04-04T00:32:05.644Z,1.60
2023-04-04T00:34:33.733Z,1.60
2023-04-04T00:37:02.001Z,1.60
2023-04-04T00:39:30.097Z,1.70
2023-04-04T00:41:58.364Z,1.70
2023-04-04T00:44:27.742Z,1.70
2023-04-04T00:46:56.143Z,1.70
2023-04-04T00:49:24.306Z,1.70
2023-04-04T00:51:52.744Z,1.70
2023-04-04T00:54:20.830Z,1.70
2023-04-04T00:56:49.004Z,1.70
2023-04-04T00:59:17.319Z,1.80
2023-04-04T01:01:46.859Z,1.80
2023-04-04T01:04:15.519Z,1.80
2023-04-04T01:06:44.046Z,1.80
2023-04-04T01:09:12.134Z,1.80
2023-04-04T01:11:40.805Z,1.80
2023-04-04T01:14:08.998Z,1.70
2023-04-04T01:16:37.130Z,1.80
2023-04-04T01:19:10.823Z,1.70
2023-04-04T01:21:38.902Z,1.70
2023-04-04T01:24:08.268Z,1.70
2023-04-04T01:26:37.754Z,1.70
2023-04-04T01:29:05.815Z,1.70
2023-04-04T01:31:38.004Z,1.60
2023-04-04T01:34:12.163Z,1.60
2023-04-04T01:36:44.748Z,1.60
2023-04-04T01:39:19.186Z,1.60
2023-04-04T01:41:49.290Z,1.50
2023-04-04T01:44:19.016Z,1.50
2023-04-04T01:46:47.068Z,1.40
2023-04-04T01:49:15.180Z,1.40
2023-04-04T01:51:43.657Z,1.40
2023-04-04T01:54:12.217Z,1.30
2023-04-04T01:56:40.253Z,1.20
2023-04-04T01:59:09.749Z,1.20
2023-04-04T02:01:38.672Z,1.10
2023-04-04T02:04:07.312Z,1.10
2023-04-04T02:06:36.329Z,1.10
2023-04-04T02:09:04.520Z,1.00
2023-04-04T02:11:32.953Z,1.00
2023-04-04T02:14:01.149Z,0.90
2023-04-04T02:16:30.620Z,0.90
2023-04-04T02:18:58.720Z,0.90
2023-04-04T02:21:27.272Z,0.80
2023-04-04T02:23:55.447Z,0.90
2023-04-04T02:26:23.627Z,0.80
2023-04-04T02:28:51.741Z,0.70
2023-04-04T02:31:19.767Z,0.70
2023-04-04T02:33:49.196Z,0.60
2023-04-04T02:36:17.300Z,0.60
2023-04-04T02:38:45.350Z,0.60
2023-04-04T02:41:13.493Z,0.60
2023-04-04T02:43:41.612Z,0.60
2023-04-04T02:46:20.679Z,0.60
2023-04-04T02:48:52.203Z,0.50
2023-04-04T02:51:20.450Z,0.50
2023-04-04T02:53:48.482Z,0.50
2023-04-04T02:56:16.516Z,0.40
2023-04-04T02:58:44.647Z,0.40
2023-04-04T03:01:12.869Z,0.40
2023-04-04T03:03:41.018Z,0.40
2023-04-04T03:06:11.540Z,0.30
2023-04-04T03:08:39.603Z,0.30
2023-04-04T03:11:07.729Z,0.30
2023-04-04T03:13:35.847Z,0.30
2023-04-04T03:16:06.837Z,0.40
2023-04-04T03:18:36.013Z,0.40
2023-04-04T03:21:04.079Z,0.40
2023-04-04T03:23:33.704Z,0.40
2023-04-04T03:26:02.200Z,0.40
2023-04-04T03:28:30.596Z,0.40
2023-04-04T03:30:58.809Z,0.40
2023-04-04T03:33:27.511Z,0.40
2023-04-04T03:35:55.622Z,0.40
2023-04-04T03:38:23.925Z,0.40
2023-04-04T03:41:02.510Z,0.40
2023-04-04T03:43:30.991Z,0.40
2023-04-04T03:46:01.640Z,0.50
2023-04-04T03:48:30.271Z,0.40
2023-04-04T03:50:58.841Z,0.40
2023-04-04T03:53:26.897Z,0.40
2023-04-04T03:55:56.964Z,0.20
2023-04-04T03:58:25.558Z,0.20
2023-04-04T04:00:53.748Z,0.20
2023-04-04T04:03:22.407Z,0.10
2023-04-04T04:05:50.814Z,0.10
2023-04-04T04:08:18.853Z,0.10
2023-04-04T04:10:46.924Z,0.10
2023-04-04T04:13:16.343Z,0.10
2023-04-04T04:15:44.577Z,0.00
2023-04-04T04:18:12.674Z,0.00
2023-04-04T04:20:40.890Z,-0.20
2023-04-04T04:23:09.106Z,-0.20
2023-04-04T04:25:37.117Z,-0.20
2023-04-04T04:28:05.690Z,-0.30
2023-04-04T04:30:35.218Z,-0.30
2023-04-04T04:33:03.785Z,-0.20
2023-04-04T04:35:31.852Z,-0.20
2023-04-04T04:38:00.043Z,-0.30
2023-04-04T04:40:28.173Z,-0.40
2023-04-04T04:42:56.252Z,-0.50
2023-04-04T04:45:24.478Z,-0.50
2023-04-04T04:47:54.083Z,-0.70
2023-04-04T04:50:22.597Z,-0.70
2023-04-04T04:52:51.557Z,-0.70
2023-04-04T04:55:19.849Z,-0.70
2023-04-04T04:57:48.143Z,-0.70
2023-04-04T05:00:17.401Z,-0.70
2023-04-04T05:02:45.509Z,-0.70
2023-04-04T05:05:15.173Z,-0.70
2023-04-04T05:07:46.303Z,-0.70
2023-04-04T05:10:14.370Z,-0.70
2023-04-04T05:12:44.732Z,-0.80
2023-04-04T05:15:13.156Z,-0.90
2023-04-04T05:17:41.844Z,-0.80
2023-04-04T05:20:11.006Z,-0.80
2023-04-04T05:22:45.269Z,-0.80
2023-04-04T05:25:13.683Z,-0.80
2023-04-04T05:27:42.610Z,-0.90
2023-04-04T05:30:11.282Z,-0.90
2023-04-04T05:32:39.334Z,-0.80
2023-04-04T05:35:08.006Z,-0.70
2023-04-04T05:37:40.065Z,-0.70
2023-04-04T05:40:10.868Z,-0.70
2023-04-04T05:42:39.007Z,-0.60
2023-04-04T05:45:08.389Z,-0.60
2023-04-04T05:47:36.701Z,-0.50
2023-04-04T05:50:06.548Z,-0.50
2023-04-04T05:52:34.594Z,-0.40
2023-04-04T05:55:02.696Z,-0.40
2023-04-04T05:57:32.781Z,-0.30
2023-04-04T06:00:00.903Z,-0.20
2023-04-04T06:02:30.109Z,0.00
2023-04-04T06:04:58.502Z,0.00
2023-04-04T06:07:26.514Z,0.20
2023-04-04T06:09:54.603Z,0.40
2023-04-04T06:12:22.704Z,0.50
2023-04-04T06:14:52.129Z,0.80
2023-04-04T06:17:20.198Z,1.00
2023-04-04T06:19:48.412Z,1.40
2023-04-04T06:22:17.751Z,1.70
2023-04-04T06:24:45.815Z,2.00
2023-04-04T06:27:13.872Z,2.20
2023-04-04T06:29:42.977Z,2.30
2023-04-04T06:32:12.489Z,2.50
2023-04-04T06:34:40.492Z,2.70
2023-04-04T06:37:08.599Z,3.00
2023-04-04T06:39:36.631Z,3.20
2023-04-04T06:42:04.852Z,3.40
2023-04-04T06:44:33.012Z,3.60
2023-04-04T06:47:01.348Z,3.80
2023-04-04T06:49:30.930Z,3.80
2023-04-04T06:51:58.950Z,4.10
2023-04-04T06:54:27.612Z,4.50
2023-04-04T06:56:55.721Z,4.50
2023-04-04T06:59:23.867Z,4.70
2023-04-04T07:01:52.052Z,4.80
2023-04-04T07:04:20.538Z,5.00
2023-04-04T07:06:50.006Z,5.10
2023-04-04T07:09:27.921Z,5.00
2023-04-04T07:11:57.077Z,5.00
2023-04-04T07:14:25.904Z,5.20
2023-04-04T07:16:55.118Z,5.20
2023-04-04T07:19:24.497Z,5.20
2023-04-04T07:21:53.975Z,5.30
2023-04-04T07:24:22.152Z,5.30
2023-04-04T07:26:50.268Z,5.50
2023-04-04T07:29:18.459Z,5.60
2023-04-04T07:31:46.505Z,5.70
2023-04-04T07:34:14.829Z,5.80
2023-04-04T07:36:43.033Z,5.90
2023-04-04T07:39:12.445Z,6.00
2023-04-04T07:41:41.811Z,6.00
2023-04-04T07:44:10.191Z,6.10
2023-04-04T07:46:38.501Z,6.20
2023-04-04T07:49:07.668Z,6.30
2023-04-04T07:51:36.151Z,6.30
2023-04-04T07:54:04.269Z,6.20
2023-04-04T07:56:33.827Z,6.40
2023-04-04T07:59:02.140Z,6.50
2023-04-04T08:01:30.865Z,6.60
2023-04-04T08:03:59.056Z,6.70
2023-04-04T08:06:27.272Z,6.80
2023-04-04T08:08:55.446Z,6.80
2023-04-04T08:11:23.617Z,6.90
2023-04-04T08:13:53.095Z,6.90
2023-04-04T08:16:21.567Z,7.00
2023-04-04T08:18:49.778Z,7.10
2023-04-04T08:21:17.927Z,7.20
2023-04-04T08:23:46.042Z,7.30
2023-04-04T08:26:14.115Z,7.30
2023-04-04T08:28:42.253Z,7.40
2023-04-04T08:31:12.531Z,7.40
2023-04-04T08:36:12.383Z,7.60
2023-04-04T08:38:40.492Z,7.80
2023-04-04T08:41:09.589Z,8.00
2023-04-04T08:43:38.145Z,8.10
2023-04-04T08:46:07.112Z,7.90
2023-04-04T08:48:38.586Z,8.00
2023-04-04T08:51:09.167Z,8.20
2023-04-04T08:53:37.744Z,8.30
2023-04-04T08:56:06.341Z,8.50
2023-04-04T08:58:34.630Z,8.70
2023-04-04T09:01:02.685Z,8.70
2023-04-04T09:03:33.169Z,8.90
2023-04-04T09:06:02.948Z,9.00
2023-04-04T09:08:31.488Z,9.00
2023-04-04T09:10:59.608Z,9.10
2023-04-04T09:13:27.659Z,9.10
2023-04-04T09:15:56.470Z,9.20
2023-04-04T09:18:24.696Z,9.20
2023-04-04T09:20:52.917Z,9.20
2023-04-04T09:23:23.791Z,9.20
2023-04-04T09:26:03.169Z,9.10
2023-04-04T09:28:33.163Z,9.20
2023-04-04T09:31:02.390Z,9.10
2023-04-04T09:33:33.975Z,9.10
2023-04-04T09:36:04.586Z,9.20
2023-04-04T09:38:37.982Z,9.20
2023-04-04T09:41:08.357Z,9.30
2023-04-04T09:43:37.362Z,9.30
2023-04-04T09:46:06.711Z,9.30
2023-04-04T09:48:36.973Z,9.40
2023-04-04T09:51:06.405Z,9.70
2023-04-04T09:53:38.078Z,9.70
2023-04-04T09:56:07.592Z,9.70
2023-04-04T09:58:36.642Z,9.90
2023-04-04T10:01:06.761Z,10.00
2023-04-04T10:03:34.904Z,10.00
2023-04-04T10:06:07.253Z,10.10
2023-04-04T10:08:40.699Z,10.10
2023-04-04T10:11:11.252Z,10.20
2023-04-04T10:13:42.305Z,10.40
2023-04-04T10:16:11.334Z,10.00
2023-04-04T10:18:40.224Z,10.10
2023-04-04T10:23:43.911Z,10.10
2023-04-04T10:26:12.850Z,10.30
2023-04-04T10:28:42.262Z,10.40
2023-04-04T10:31:17.560Z,10.50
2023-04-04T10:33:50.775Z,10.70
2023-04-04T10:36:22.851Z,10.80
2023-04-04T10:39:08.749Z,10.70
2023-04-04T10:41:37.556Z,10.70
2023-04-04T10:44:14.578Z,10.80
2023-04-04T10:46:44.974Z,10.80
2023-04-04T10:49:13.317Z,10.90
2023-04-04T10:51:52.959Z,10.90
2023-04-04T10:54:22.748Z,10.90
2023-04-04T10:56:50.834Z,11.00
2023-04-04T10:59:19.285Z,11.00
2023-04-04T11:01:58.139Z,11.20
2023-04-04T11:04:34.917Z,11.30
2023-04-04T11:07:11.373Z,11.60
2023-04-04T11:09:54.352Z,11.70
2023-04-04T11:12:24.331Z,11.90
2023-04-04T11:15:08.426Z,11.90
2023-04-04T11:17:57.525Z,12.10
2023-04-04T11:20:30.163Z,12.00
2023-04-04T11:23:05.614Z,12.00
2023-04-04T11:25:37.442Z,12.20
2023-04-04T11:28:07.912Z,12.40
2023-04-04T11:30:44.113Z,12.50
2023-04-04T11:33:14.135Z,12.40
2023-04-04T11:35:45.990Z,12.40
2023-04-04T11:38:15.074Z,12.50
2023-04-04T11:40:54.773Z,12.70
2023-04-04T11:43:23.734Z,12.80
2023-04-04T11:45:51.962Z,12.80
2023-04-04T11:48:21.077Z,12.90
2023-04-04T11:50:53.162Z,12.90
2023-04-04T11:53:21.402Z,12.90
2023-04-04T11:55:54.799Z,12.80
2023-04-04T11:58:23.255Z,13.00
2023-04-04T12:00:51.708Z,13.00
2023-04-04T12:03:19.936Z,13.00
2023-04-04T12:05:48.570Z,13.00
2023-04-04T12:08:18.050Z,13.10
2023-04-04T12:10:46.118Z,13.00
2023-04-04T12:13:16.345Z,13.10
2023-04-04T12:15:45.005Z,13.20
2023-04-04T12:18:22.246Z,13.10
2023-04-04T12:20:52.192Z,13.10
2023-04-04T12:23:20.866Z,13.00
2023-04-04T12:25:53.825Z,13.00
2023-04-04T12:28:24.035Z,12.70
2023-04-04T12:30:53.286Z,12.80
2023-04-04T12:33:21.415Z,12.80
2023-04-04T12:35:53.773Z,12.70
2023-04-04T12:38:21.847Z,12.30
2023-04-04T12:40:52.519Z,12.20
2023-04-04T12:43:20.895Z,12.10
2023-04-04T12:45:51.202Z,12.00
2023-04-04T12:48:21.216Z,12.00
2023-04-04T12:50:54.334Z,12.00
2023-04-04T12:55:55.845Z,12.10
2023-04-04T12:58:25.866Z,12.10
2023-04-04T13:00:56.915Z,12.00
2023-04-04T13:03:26.279Z,12.00
2023-04-04T13:05:54.446Z,12.00
2023-04-04T13:08:22.706Z,11.90
2023-04-04T13:10:57.980Z,11.80
2023-04-04T13:13:36.478Z,11.80
2023-04-04T13:16:07.602Z,11.80
2023-04-04T13:18:38.389Z,11.70
2023-04-04T13:21:08.494Z,11.70
2023-04-04T13:23:37.722Z,11.70
2023-04-04T13:26:06.967Z,11.60
2023-04-04T13:28:35.646Z,11.50
2023-04-04T13:31:04.763Z,11.40
2023-04-04T13:33:34.798Z,11.30
2023-04-04T13:36:03.127Z,11.40
2023-04-04T13:38:31.958Z,11.50
2023-04-04T13:41:00.661Z,11.50
2023-04-04T13:43:29.011Z,11.50
2023-04-04T13:45:57.364Z,11.50
2023-04-04T13:48:25.541Z,11.60
2023-04-04T13:50:55.722Z,11.60
2023-04-04T13:53:23.816Z,11.60
2023-04-04T13:56:16.232Z,11.50
2023-04-04T13:58:40.561Z,11.50
2023-04-04T14:01:08.961Z,11.50
2023-04-04T14:03:37.326Z,11.40
2023-04-04T14:06:10.728Z,11.50
2023-04-04T14:08:39.739Z,11.50
2023-04-04T14:11:08.032Z,11.50
2023-04-04T14:13:36.382Z,11.50
2023-04-04T14:16:04.705Z,11.50
2023-04-04T14:18:34.332Z,11.40
2023-04-04T14:21:02.985Z,11.20
2023-04-04T14:23:32.962Z,11.30
2023-04-04T14:26:01.155Z,11.40
2023-04-04T14:28:29.375Z,11.40
2023-04-04T14:30:57.402Z,11.40
2023-04-04T14:33:26.341Z,11.30
2023-04-04T14:35:54.423Z,11.30
2023-04-04T14:38:22.530Z,11.30
2023-04-04T14:40:52.431Z,11.30
2023-04-04T14:43:20.725Z,11.30
2023-04-04T14:45:49.300Z,11.30
2023-04-04T14:48:17.346Z,11.30
2023-04-04T14:50:45.908Z,11.30
2023-04-04T14:53:14.069Z,11.30
2023-04-04T14:55:42.623Z,11.30
2023-04-04T14:58:12.548Z,11.30
2023-04-04T15:00:40.770Z,11.20
2023-04-04T15:03:09.126Z,11.20
2023-04-04T15:05:37.187Z,11.20
2023-04-04T15:08:05.572Z,11.20
2023-04-04T15:10:33.678Z,11.30
2023-04-04T15:13:01.993Z,11.30
2023-04-04T15:15:31.465Z,11.20
2023-04-04T15:17:59.566Z,11.20
2023-04-04T15:20:27.827Z,11.00
2023-04-04T15:22:55.939Z,11.00
2023-04-04T15:25:24.246Z,11.00
2023-04-04T15:27:52.300Z,11.00
2023-04-04T15:30:20.551Z,11.00
2023-04-04T15:32:51.291Z,10.90
2023-04-04T15:35:21.875Z,10.90
2023-04-04T15:37:50.131Z,10.90
2023-04-04T15:40:18.718Z,10.90
2023-04-04T15:42:47.187Z,10.80
2023-04-04T15:45:15.884Z,10.80
2023-04-04T15:47:45.031Z,10.70
2023-04-04T15:50:14.876Z,10.60
2023-04-04T15:52:43.256Z,10.60
2023-04-04T15:55:13.338Z,10.60
2023-04-04T15:57:44.394Z,10.60
2023-04-04T16:00:14.507Z,10.60
2023-04-04T16:02:43.095Z,10.50
2023-04-04T16:05:11.492Z,10.50
2023-04-04T16:07:40.907Z,10.50
2023-04-04T16:10:10.469Z,10.40
2023-04-04T16:12:38.593Z,10.40
2023-04-04T16:15:08.730Z,10.40
2023-04-04T16:17:36.862Z,10.30
2023-04-04T16:20:05.723Z,10.30
2023-04-04T16:22:34.284Z,10.30
2023-04-04T16:25:03.757Z,10.30
2023-04-04T16:27:31.860Z,10.30
2023-04-04T16:29:59.940Z,10.20
2023-04-04T16:32:28.552Z,10.20
2023-04-04T16:34:56.650Z,10.10
2023-04-04T16:37:24.710Z,10.00
2023-04-04T16:39:52.903Z,10.00
2023-04-04T16:42:22.392Z,10.00
2023-04-04T16:44:50.598Z,9.90
2023-04-04T16:47:18.827Z,9.90
2023-04-04T16:49:48.041Z,9.80
2023-04-04T16:52:16.221Z,9.80
2023-04-04T16:54:44.538Z,9.70
2023-04-04T16:57:13.110Z,9.70
2023-04-04T16:59:42.691Z,9.60
2023-04-04T17:02:10.889Z,9.60
2023-04-04T17:04:41.719Z,9.60
2023-04-04T17:07:10.384Z,9.60
2023-04-04T17:09:38.754Z,9.60
2023-04-04T17:12:07.485Z,9.60
2023-04-04T17:14:35.701Z,9.50
2023-04-04T17:17:05.790Z,9.50
2023-04-04T17:19:35.127Z,9.50
2023-04-04T17:22:03.549Z,9.50
2023-04-04T17:24:31.745Z,9.50
2023-04-04T17:27:01.932Z,9.40
2023-04-04T17:29:30.205Z,9.40
2023-04-04T17:31:59.727Z,9.40
2023-04-04T17:34:29.306Z,9.40
2023-04-04T17:36:57.701Z,9.30
2023-04-04T17:39:26.237Z,9.30
2023-04-04T17:41:54.438Z,9.30
2023-04-04T17:44:23.001Z,9.20
2023-04-04T17:46:51.200Z,9.20
2023-04-04T17:49:20.167Z,9.20
2023-04-04T17:51:50.609Z,9.10
2023-04-04T17:54:18.978Z,9.10
2023-04-04T17:58:36.149Z,9.10
2023-04-04T18:01:05.495Z,9.00
2023-04-04T18:03:33.849Z,9.00
2023-04-04T18:06:02.495Z,9.00
2023-04-04T18:08:30.738Z,9.00
2023-04-04T18:10:59.674Z,8.90
2023-04-04T18:13:27.978Z,8.80
2023-04-04T18:15:57.653Z,8.90
2023-04-04T18:18:26.076Z,8.80
2023-04-04T18:20:55.138Z,8.80
2023-04-04T18:23:24.319Z,8.80
2023-04-04T18:25:52.555Z,8.70
2023-04-04T18:28:20.801Z,8.70
2023-04-04T18:30:49.523Z,8.70
2023-04-04T18:33:19.641Z,8.60
2023-04-04T18:35:48.385Z,8.60
2023-04-04T18:38:17.109Z,8.60
2023-04-04T18:40:48.572Z,8.50
2023-04-04T18:43:18.246Z,8.50
2023-04-04T18:45:47.345Z,8.50
2023-04-04T18:48:15.891Z,8.50
2023-04-04T18:50:45.821Z,8.50
2023-04-04T18:53:14.077Z,8.40
2023-04-04T18:55:42.337Z,8.40
2023-04-04T18:58:10.904Z,8.40
2023-04-04T19:00:39.503Z,8.30
2023-04-04T19:03:08.109Z,8.30
2023-04-04T19:05:38.474Z,8.30
2023-04-04T19:08:09.462Z,8.20
2023-04-04T19:10:38.894Z,8.20
2023-04-04T19:13:07.334Z,8.20
2023-04-04T19:15:35.857Z,8.20
2023-04-04T19:18:04.265Z,8.10
2023-04-04T19:20:32.551Z,8.10
2023-04-04T19:23:00.839Z,8.10
2023-04-04T19:25:30.591Z,8.00
2023-04-04T19:27:59.617Z,8.00
2023-04-04T19:30:47.299Z,8.00
2023-04-04T19:33:17.816Z,7.90
2023-04-04T19:35:54.894Z,7.90
2023-04-04T19:38:28.150Z,7.90
2023-04-04T19:41:00.352Z,7.80
2023-04-04T19:43:30.220Z,7.70
2023-04-04T19:46:09.494Z,7.70
2023-04-04T19:48:44.252Z,7.60
2023-04-04T19:51:38.455Z,7.60
2023-04-04T19:54:09.900Z,7.60
2023-04-04T19:56:39.537Z,7.50
2023-04-04T19:59:10.635Z,7.50
2023-04-04T20:01:47.253Z,7.40
2023-04-04T20:04:19.093Z,7.30
2023-04-04T20:06:49.364Z,7.20
2023-04-04T20:09:34.773Z,7.20
2023-04-04T20:12:05.057Z,7.10
2023-04-04T20:14:33.367Z,7.00
2023-04-04T20:17:01.669Z,7.00
2023-04-04T20:19:30.319Z,6.90
2023-04-04T20:21:58.632Z,6.80
2023-04-04T20:24:28.412Z,6.70
2023-04-04T20:26:59.177Z,6.60
2023-04-04T20:29:31.448Z,6.50
2023-04-04T20:32:02.248Z,6.40
2023-04-04T20:34:41.761Z,6.30
2023-04-04T20:37:14.117Z,6.30
2023-04-04T20:39:49.717Z,6.20
2023-04-04T20:42:39.981Z,6.10
2023-04-04T20:45:42.801Z,6.00
2023-04-04T20:48:38.224Z,5.90
2023-04-04T20:51:23.727Z,5.80
2023-04-04T20:53:53.906Z,5.80
2023-04-04T20:56:58.308Z,5.70
2023-04-04T20:59:36.506Z,5.70
2023-04-04T21:02:16.768Z,5.60
2023-04-04T21:04:48.240Z,5.50
2023-04-04T21:07:43.880Z,5.40
2023-04-04T21:10:25.601Z,5.40
2023-04-04T21:12:54.504Z,5.20
2023-04-04T21:15:24.700Z,5.20
2023-04-04T21:17:54.873Z,5.20
2023-04-04T21:21:16.964Z,5.20
2023-04-04T21:23:51.188Z,5.20
2023-04-04T21:26:28.348Z,5.20
2023-04-04T21:28:57.899Z,5.10
2023-04-04T21:31:34.677Z,5.10
2023-04-04T21:34:15.775Z,5.10
2023-04-04T21:36:44.892Z,5.00
2023-04-04T21:39:15.103Z,4.90
2023-04-04T21:41:45.350Z,4.90
2023-04-04T21:44:14.859Z,4.80
2023-04-04T21:46:43.627Z,4.80
2023-04-04T21:49:13.708Z,4.70
2023-04-04T21:51:42.626Z,4.70
2023-04-04T21:54:11.155Z,4.60
2023-04-04T21:56:39.712Z,4.60
2023-04-04T21:59:10.244Z,4.70
2023-04-04T22:01:40.789Z,4.70
2023-04-04T22:04:09.355Z,4.70
2023-04-04T22:06:38.904Z,4.60
2023-04-04T22:09:07.132Z,4.50
2023-04-04T22:11:38.806Z,4.50
2023-04-04T22:14:07.993Z,4.40
2023-04-04T22:16:39.751Z,4.40
2023-04-04T22:19:10.888Z,4.40
2023-04-04T22:21:48.083Z,4.40
2023-04-04T22:24:18.003Z,4.40
2023-04-04T22:26:46.921Z,4.40
2023-04-04T22:29:15.478Z,4.30
2023-04-04T22:31:44.087Z,4.30
2023-04-04T22:34:14.894Z,4.20
2023-04-04T22:36:44.946Z,4.20
2023-04-04T22:39:16.122Z,4.20
2023-04-04T22:41:45.250Z,4.10
2023-04-04T22:44:13.382Z,4.10
2023-04-04T22:46:41.672Z,4.10
2023-04-04T22:49:10.145Z,4.00
2023-04-04T22:51:44.112Z,4.00
2023-04-04T22:54:15.722Z,3.90
2023-04-04T22:56:44.331Z,3.90
2023-04-04T22:59:12.848Z,3.80
2023-04-04T23:01:41.543Z,3.80
2023-04-04T23:04:09.854Z,3.70
2023-04-04T23:06:38.589Z,3.70
2023-04-04T23:09:07.960Z,3.70
2023-04-04T23:11:38.705Z,3.60
2023-04-04T23:14:09.256Z,3.60
2023-04-04T23:16:38.267Z,3.60
2023-04-04T23:19:06.500Z,3.40
2023-04-04T23:21:34.817Z,3.30
2023-04-04T23:24:03.304Z,3.20
2023-04-04T23:26:32.576Z,3.20
2023-04-04T23:29:02.980Z,3.10
2023-04-04T23:31:31.292Z,3.10
2023-04-04T23:34:00.450Z,3.00
2023-04-04T23:36:28.682Z,2.90
2023-04-04T23:38:57.048Z,2.80
2023-04-04T23:41:25.336Z,2.70
2023-04-04T23:43:54.618Z,2.60
2023-04-04T23:46:24.315Z,2.50
2023-04-04T23:48:52.729Z,2.50
2023-04-04T23:51:21.344Z,2.40
2023-04-04T23:53:49.664Z,2.40
2023-04-04T23:56:17.985Z,2.30
2023-04-04T23:58:46.275Z,2.40
